Latest Weather Observations for Lismore Airport

IDN60801

Issued at 11:32 pm EST Monday 26 June 2017 (issued every 30 minutes, with the page automatically refreshed every 10 minutes)

About weather observations | Map of weather stations | Latest weather observations for NSW | Other Formats
Station Details ID: 058214 Name: LISMORE AIRPORT AWS Lat: -28.83 Lon: 153.26 Height: 9.21 m
Data from the previous 72 hours. | See also: Recent months at Lismore Airport
Date/Time
EST
Temp
°C
App
Temp
°C
Dew
Point
°C
Rel
Hum
%
Delta-T
°C
Wind Press
QNH
hPa
Press
MSL
hPa
Rain since
9am
mm
Dir  Spd
km/h
Gust
km/h
Spd
kts
Gust
kts
26/11:30pm 8.6 8.1 7.7 94 0.4 CALM 0 0 0 0 1024.1 1024.1 0.0
26/11:19pm 8.5 7.9 7.6 94 0.4 CALM 0 0 0 0 1024.1 1024.1 0.0
26/11:03pm 9.2 8.8 8.3 94 0.4 CALM 0 0 0 0 1024.2 1024.2 0.0
26/11:00pm 9.2 8.8 8.1 93 0.5 CALM 0 0 0 0 1024.2 1024.2 0.0
26/10:44pm 9.6 9.3 8.7 94 0.4 CALM 0 0 0 0 1024.3 1024.3 0.0
26/10:30pm 9.5 9.1 8.1 91 0.7 CALM 0 0 0 0 1024.4 1024.4 0.0
26/10:00pm 10.6 9.4 9.7 94 0.5 NNE 6 7 3 4 1024.3 1024.3 0.0
26/09:30pm 10.4 9.0 9.5 94 0.4 N 7 9 4 5 1023.7 1023.7 0.0
26/09:00pm 11.0 9.7 9.8 92 0.6 N 7 11 4 6 1023.2 1023.2 0.0
26/08:30pm 12.3 11.4 11.2 93 0.6 N 7 11 4 6 1023.2 1023.2 0.0
26/08:00pm 11.1 9.5 10.3 95 0.4 N 9 13 5 7 1022.9 1022.9 0.0
26/07:30pm 10.8 10.6 9.2 90 0.8 CALM 0 0 0 0 1022.4 1022.4 0.0
26/07:00pm 12.3 12.5 10.5 89 0.9 CALM 0 0 0 0 1022.1 1022.1 0.0
26/06:30pm 12.7 12.9 10.6 87 1.1 CALM 0 0 0 0 1021.5 1021.5 0.0
26/06:00pm 13.3 13.2 9.4 77 2.0 CALM 0 0 0 0 1021.2 1021.2 0.0
26/05:30pm 15.6 16.3 12.2 80 1.9 CALM 0 0 0 0 1020.8 1020.8 0.0
26/05:00pm 16.5 15.2 11.2 71 2.8 SSE 9 11 5 6 1020.7 1020.7 0.0
26/04:30pm 19.1 17.3 12.1 64 3.9 SE 13 17 7 9 1020.4 1020.4 0.0
26/04:00pm 20.1 17.4 11.6 58 4.7 SE 17 20 9 11 1020.2 1020.2 0.0
26/03:30pm 21.3 19.0 11.6 54 5.4 ESE 15 20 8 11 1019.8 1019.8 0.0
26/03:00pm 22.7 19.9 6.9 36 8.1 S 11 20 6 11 1019.9 1019.9 0.0
26/02:30pm 22.8 20.1 7.4 37 8.0 SSW 11 24 6 13 1019.5 1019.5 0.0
26/02:00pm 22.7 20.1 7.7 38 7.8 SSE 11 15 6 8 1019.6 1019.6 0.0
26/01:30pm 22.6 20.0 7.6 38 7.8 SSW 11 17 6 9 1019.7 1019.7 0.0
26/01:00pm 22.8 20.5 7.4 37 8.0 S 9 15 5 8 1019.9 1019.9 0.0
26/12:30pm 22.4 21.2 9.6 44 6.9 SSE 6 11 3 6 1020.0 1020.0 0.0
26/12:00pm 21.7 20.3 10.8 50 6.0 WSW 9 13 5 7 1020.5 1020.5 0.0
26/11:30am 21.1 22.2 14.5 66 3.9 ESE 2 9 1 5 1020.7 1020.7 0.0
26/11:00am 19.7 20.9 13.9 69 3.3 CALM 0 0 0 0 1021.1 1021.1 0.0
26/10:30am 18.8 19.5 13.4 71 3.1 N 2 6 1 3 1021.5 1021.5 0.0
26/10:00am 17.0 17.5 13.9 82 1.8 N 4 9 2 5 1021.6 1021.6 0.0
26/09:31am 14.6 14.4 13.5 93 0.6 N 7 9 4 5 1021.6 1021.6 0.0
26/09:30am 14.4 14.1 13.3 93 0.6 N 7 9 4 5 1021.6 1021.6 0.0
26/09:19am 13.5 13.1 12.9 96 0.3 N 7 9 4 5 1021.6 1021.6 0.0
26/09:00am 12.4 11.7 12.1 98 0.2 N 7 11 4 6 1021.6 1021.6 0.2
26/08:30am 10.6 8.6 10.3 98 0.2 N 11 13 6 7 1021.4 1021.4 0.2
26/08:00am 10.1 8.4 9.8 98 0.2 N 9 11 5 6 1021.0 1021.0 0.2
26/07:30am 8.6 6.5 8.3 98 0.1 N 9 9 5 5 1020.6 1020.6 0.2
26/07:00am 8.5 6.4 8.2 98 0.1 N 9 11 5 6 1020.3 1020.3 0.2
26/06:30am 7.9 7.3 7.5 97 0.2 CALM 0 0 0 0 1020.1 1020.1 0.2
26/06:00am 8.2 7.7 7.8 97 0.2 CALM 0 0 0 0 1019.7 1019.7 0.2
26/05:30am 8.4 7.9 8.0 97 0.2 CALM 0 0 0 0 1019.5 1019.5 0.2
26/05:00am 8.9 8.6 8.5 97 0.2 CALM 0 0 0 0 1019.4 1019.4 0.2
26/04:30am 9.3 9.0 8.8 97 0.2 CALM 0 0 0 0 1019.2 1019.2 0.2
26/04:00am 9.0 8.6 8.4 96 0.3 CALM 0 0 0 0 1019.2 1019.2 0.2
26/03:52am 9.2 8.8 8.4 95 0.4 CALM 0 0 0 0 1019.2 1019.2 0.2
26/03:30am 10.2 10.1 9.6 96 0.3 CALM 0 0 0 0 1019.1 1019.1 0.2
26/03:14am 10.0 9.8 9.2 95 0.4 CALM 0 0 0 0 1019.1 1019.1 0.2
26/03:00am 10.7 10.8 10.1 96 0.3 CALM 0 0 0 0 1019.2 1019.2 0.2
26/02:30am 11.2 11.4 10.6 96 0.3 CALM 0 0 0 0 1019.0 1019.0 0.2
26/02:00am 11.4 11.7 10.8 96 0.3 CALM 0 0 0 0 1019.1 1019.1 0.2
26/01:30am 11.4 11.6 10.5 94 0.5 CALM 0 0 0 0 1019.2 1019.2 0.2
26/01:00am 11.9 10.9 11.1 95 0.4 NNW 7 11 4 6 1019.1 1019.1 0.2
26/12:30am 12.0 10.7 11.2 95 0.4 N 9 11 5 6 1019.2 1019.2 0.2
26/12:00am 12.0 10.7 11.4 96 0.3 N 9 11 5 6 1019.3 1019.3 0.2
 
Date/Time
EST
Temp
°C
App
Temp
°C
Dew
Point
°C
Rel
Hum
%
Delta-T
°C
Wind Press
QNH
hPa
Press
MSL
hPa
Rain since
9am
mm
Dir  Spd
km/h
Gust
km/h
Spd
kts
Gust
kts
25/11:30pm 11.5 9.7 10.9 96 0.3 NNW 11 13 6 7 1019.3 1019.3 0.2
25/11:00pm 11.5 9.7 10.7 95 0.4 N 11 13 6 7 1019.4 1019.4 0.2
25/10:30pm 11.8 10.0 10.9 94 0.5 N 11 13 6 7 1019.4 1019.4 0.2
25/10:00pm 12.1 10.8 11.3 95 0.4 N 9 11 5 6 1019.5 1019.5 0.2
25/09:30pm 12.2 11.2 11.1 93 0.6 N 7 9 4 5 1019.4 1019.4 0.2
25/09:00pm 13.3 11.1 12.2 93 0.6 NNW 15 19 8 10 1019.1 1019.1 0.2
25/08:30pm 13.1 11.3 12.2 94 0.5 N 13 13 7 7 1019.2 1019.2 0.2
25/08:00pm 13.3 11.4 11.7 90 0.9 N 13 13 7 7 1018.8 1018.8 0.2
25/07:30pm 14.9 13.9 12.4 85 1.4 N 9 11 5 6 1018.6 1018.6 0.2
25/07:00pm 14.8 13.6 12.7 87 1.1 N 11 13 6 7 1018.5 1018.5 0.2
25/06:30pm 14.8 14.0 12.8 88 1.1 NNW 9 11 5 6 1018.2 1018.2 0.2
25/06:00pm 15.3 15.4 12.6 84 1.5 WNW 4 11 2 6 1017.9 1017.9 0.2
25/05:30pm 17.0 15.7 12.5 75 2.5 NE 11 17 6 9 1017.7 1017.7 0.2
25/05:00pm 18.6 17.4 12.8 69 3.2 ENE 11 15 6 8 1017.3 1017.3 0.2
25/04:30pm 19.5 18.4 12.0 62 4.2 E 9 13 5 7 1017.2 1017.2 0.2
25/04:00pm 21.0 19.6 10.8 52 5.6 ESE 9 11 5 6 1017.1 1017.1 0.2
25/03:30pm 21.7 20.0 9.9 47 6.4 SE 9 13 5 7 1017.1 1017.1 0.2
25/03:00pm 22.1 20.5 10.3 47 6.4 SSE 9 15 5 8 1017.0 1017.0 0.2
25/02:30pm 22.4 21.4 10.9 48 6.4 SE 7 13 4 7 1017.1 1017.1 0.2
25/02:00pm 22.3 20.2 8.1 40 7.4 SSE 9 11 5 6 1017.1 1017.1 0.2
25/01:30pm 22.0 22.1 10.2 47 6.4 CALM 0 0 0 0 1017.3 1017.3 0.2
25/01:00pm 22.8 22.8 9.9 44 7.0 CALM 0 0 0 0 1017.5 1017.5 0.2
25/12:30pm 22.0 22.7 12.3 54 5.5 CALM 0 0 0 0 1017.9 1017.9 0.2
25/12:00pm 21.4 22.2 12.5 57 5.0 CALM 0 0 0 0 1018.3 1018.3 0.2
25/11:30am 21.0 21.9 12.9 60 4.6 CALM 0 0 0 0 1018.8 1018.8 0.2
25/11:00am 19.4 20.2 12.4 64 3.9 CALM 0 0 0 0 1019.3 1019.3 0.2
25/10:30am 17.7 18.4 12.2 70 3.0 CALM 0 0 0 0 1019.8 1019.8 0.0
25/10:00am 16.3 16.9 11.9 75 2.4 CALM 0 0 0 0 1020.4 1020.4 0.0
25/09:30am 14.2 12.6 11.5 84 1.4 NNW 11 13 6 7 1020.7 1020.7 0.0
25/09:00am 12.1 9.4 10.5 90 0.8 NNW 15 17 8 9 1020.4 1020.4 0.0
25/08:30am 11.0 9.8 9.6 91 0.7 N 6 9 3 5 1020.2 1020.2 0.0
25/08:00am 9.1 8.7 8.2 94 0.4 CALM 0 2 0 1 1020.1 1020.1 0.0
25/07:30am 8.1 7.5 7.5 96 0.3 CALM 0 0 0 0 1019.7 1019.7 0.0
25/07:00am 7.0 4.9 6.6 97 0.2 NNE 7 9 4 5 1019.4 1019.4 0.0
25/06:30am 7.1 4.6 6.7 97 0.2 NNE 9 11 5 6 1019.3 1019.3 0.0
25/06:00am 7.1 3.9 6.7 97 0.2 N 13 17 7 9 1018.8 1018.8 0.0
25/05:30am 7.3 4.1 6.9 97 0.2 N 13 15 7 8 1018.6 1018.6 0.0
25/05:00am 7.3 4.1 6.9 97 0.2 N 13 15 7 8 1018.5 1018.5 0.0
25/04:40am 7.4 5.0 7.0 97 0.2 NNE 9 11 5 6 1018.5 1018.5 0.0
25/04:30am 7.3 4.5 6.9 97 0.2 N 11 13 6 7 1018.5 1018.5 0.0
25/04:11am 7.3 4.1 6.9 97 0.2 N 13 15 7 8 1018.3 1018.3 0.0
25/04:00am 7.7 4.6 7.3 97 0.2 N 13 13 7 7 1018.3 1018.3 0.0
25/03:30am 7.7 5.4 7.3 97 0.2 N 9 13 5 7 1018.6 1018.6 0.0
25/03:00am 7.7 5.7 7.1 96 0.3 N 7 11 4 6 1018.7 1018.7 0.0
25/02:44am 7.7 5.7 7.1 96 0.3 N 7 11 4 6 1018.8 1018.8 0.0
25/02:30am 8.3 6.1 7.9 97 0.2 N 9 13 5 7 1018.8 1018.8 0.0
25/02:00am 8.4 5.9 8.0 97 0.2 N 11 13 6 7 1018.7 1018.7 0.0
25/01:30am 8.1 5.4 7.5 96 0.3 N 11 13 6 7 1018.6 1018.6 0.0
25/01:00am 8.7 5.8 8.1 96 0.3 N 13 13 7 7 1018.7 1018.7 0.0
25/12:30am 8.6 6.0 7.8 95 0.4 N 11 13 6 7 1018.8 1018.8 0.0
25/12:00am 9.4 7.4 8.6 95 0.4 N 9 11 5 6 1019.1 1019.1 0.0
 
Date/Time
EST
Temp
°C
App
Temp
°C
Dew
Point
°C
Rel
Hum
%
Delta-T
°C
Wind Press
QNH
hPa
Press
MSL
hPa
Rain since
9am
mm
Dir  Spd
km/h
Gust
km/h
Spd
kts
Gust
kts
24/11:30pm 9.4 6.6 8.6 95 0.4 N 13 15 7 8 1018.9 1018.9 0.0
24/11:00pm 9.8 7.1 8.9 94 0.4 N 13 15 7 8 1018.9 1018.9 0.0
24/10:30pm 10.2 7.6 9.3 94 0.4 N 13 15 7 8 1019.0 1019.0 0.0
24/10:00pm 10.5 7.5 9.4 93 0.5 N 15 17 8 9 1018.8 1018.8 0.0
24/09:30pm 10.8 7.9 9.7 93 0.6 N 15 17 8 9 1018.6 1018.6 0.0
24/09:00pm 10.8 7.8 9.4 91 0.7 N 15 17 8 9 1018.7 1018.7 0.0
24/08:30pm 11.4 8.9 9.8 90 0.8 N 13 15 7 8 1018.5 1018.5 0.0
24/08:00pm 11.4 9.3 9.7 89 0.9 N 11 13 6 7 1018.3 1018.3 0.0
24/07:30pm 12.0 9.9 9.6 85 1.2 N 11 13 6 7 1018.0 1018.0 0.0
24/07:00pm 11.7 9.9 9.6 87 1.1 N 9 13 5 7 1017.8 1017.8 0.0
24/06:30pm 11.7 11.5 8.9 83 1.4 CALM 0 0 0 0 1017.4 1017.4 0.0
24/06:00pm 13.4 13.3 9.5 77 2.0 CALM 0 0 0 0 1017.1 1017.1 0.0
24/05:30pm 14.8 14.8 9.8 72 2.6 CALM 0 0 0 0 1016.8 1016.8 0.0
24/05:00pm 15.7 14.4 10.0 69 3.0 WSW 7 9 4 5 1016.4 1016.4 0.0
24/04:30pm 18.5 17.0 9.3 55 4.8 ESE 7 11 4 6 1016.1 1016.1 0.0
24/04:00pm 20.0 17.9 9.6 51 5.5 ESE 11 17 6 9 1015.9 1015.9 0.0
24/03:30pm 21.4 19.6 9.3 46 6.5 SSE 9 15 5 8 1015.7 1015.7 0.0
24/03:00pm 21.9 20.2 9.8 46 6.5 S 9 15 5 8 1015.6 1015.6 0.0
24/02:30pm 22.1 19.4 7.5 39 7.6 SSW 11 17 6 9 1015.3 1015.3 0.0
24/02:00pm 22.2 19.1 7.2 38 7.7 SSW 13 17 7 9 1015.4 1015.4 0.0
24/01:30pm 22.3 19.6 8.8 42 7.2 SSW 13 19 7 10 1015.6 1015.6 0.0
24/01:00pm 22.2 18.9 9.4 44 6.9 SW 17 24 9 13 1015.7 1015.7 0.0
24/12:30pm 21.6 18.1 7.4 40 7.3 WSW 15 20 8 11 1016.0 1016.0 0.0
24/12:00pm 21.5 18.0 7.0 39 7.4 WSW 15 20 8 11 1016.6 1016.6 0.0
24/11:30am 21.2 18.4 8.5 44 6.7 WSW 13 20 7 11 1017.2 1017.2 0.0
24/11:00am 20.8 18.4 8.8 46 6.3 W 11 17 6 9 1017.5 1017.5 0.0
24/10:30am 20.1 17.6 9.7 51 5.6 WNW 13 17 7 9 1017.8 1017.8 0.0
24/10:00am 18.9 17.7 11.5 62 4.0 NNW 9 15 5 8 1018.0 1018.0 0.0
24/09:30am 16.2 15.6 12.2 77 2.2 NE 7 7 4 4 1018.2 1018.2 0.0
24/09:00am 13.6 12.1 11.8 89 1.0 N 11 13 6 7 1018.0 1018.0 0.0
24/08:30am 11.4 9.0 10.1 92 0.7 N 13 17 7 9 1017.6 1017.6 0.0
24/08:00am 10.1 8.3 9.3 95 0.4 NNE 9 13 5 7 1017.5 1017.5 0.0
24/07:30am 9.1 6.3 8.6 97 0.2 NNE 13 15 7 8 1017.1 1017.1 0.0
24/07:00am 8.0 5.3 7.4 96 0.3 N 11 13 6 7 1016.6 1016.6 0.0
24/06:30am 8.0 5.3 7.2 95 0.4 NNE 11 13 6 7 1016.5 1016.5 0.0
24/06:00am 8.7 6.1 7.9 95 0.4 N 11 17 6 9 1016.1 1016.1 0.0
24/05:30am 8.5 5.5 7.9 96 0.3 N 13 17 7 9 1015.7 1015.7 0.0
24/05:00am 8.6 5.7 8.0 96 0.3 N 13 15 7 8 1015.5 1015.5 0.0
24/04:30am 8.7 5.8 8.1 96 0.3 N 13 15 7 8 1015.4 1015.4 0.0
24/04:00am 8.8 6.7 8.2 96 0.3 NNE 9 13 5 7 1015.5 1015.5 0.0
24/03:30am 8.8 6.7 8.2 96 0.3 NNE 9 11 5 6 1015.6 1015.6 0.0
24/03:00am 8.9 7.2 8.5 97 0.2 NE 7 9 4 5 1015.9 1015.9 0.0
24/02:30am 8.6 6.1 8.0 96 0.3 N 11 13 6 7 1015.7 1015.7 0.0
24/02:00am 9.1 7.1 8.5 96 0.3 N 9 13 5 7 1016.0 1016.0 0.0
24/01:30am 9.1 7.4 8.3 95 0.4 NNE 7 9 4 5 1016.2 1016.2 0.0
24/01:00am 9.7 7.4 9.1 96 0.3 N 11 13 6 7 1016.7 1016.7 0.0
24/12:30am 10.1 8.3 9.5 96 0.3 N 9 11 5 6 1017.2 1017.2 0.0
24/12:00am 9.7 8.3 8.9 95 0.4 NNE 6 11 3 6 1017.3 1017.3 0.0

Other Formats:

Comma delimited format used in spreadsheet applications
http://www.bom.gov.au/fwo/IDN60801/IDN60801.94572.axf

JavaScript Object Notation format (JSON) in row-major order
http://www.bom.gov.au/fwo/IDN60801/IDN60801.94572.json